sensor_id;sensor_type;location;lat;lon;timestamp;temperature;humidity
81935;DHT22;71405;47.674;-2.050;2023-08-12T00:00:54;22.60;74.20
81935;DHT22;71405;47.674;-2.050;2023-08-12T00:03:20;22.60;74.30
81935;DHT22;71405;47.674;-2.050;2023-08-12T00:05:46;22.60;74.20
81935;DHT22;71405;47.674;-2.050;2023-08-12T00:08:12;22.60;74.10
81935;DHT22;71405;47.674;-2.050;2023-08-12T00:10:37;22.60;74.00
81935;DHT22;71405;47.674;-2.050;2023-08-12T00:13:03;22.60;74.00
81935;DHT22;71405;47.674;-2.050;2023-08-12T00:15:29;22.60;74.00
81935;DHT22;71405;47.674;-2.050;2023-08-12T00:17:54;22.60;74.00
81935;DHT22;71405;47.674;-2.050;2023-08-12T00:20:20;22.60;74.00
81935;DHT22;71405;47.674;-2.050;2023-08-12T00:22:46;22.60;74.10
81935;DHT22;71405;47.674;-2.050;2023-08-12T00:25:11;22.60;74.00
81935;DHT22;71405;47.674;-2.050;2023-08-12T00:27:37;22.60;73.90
81935;DHT22;71405;47.674;-2.050;2023-08-12T00:30:04;22.60;73.90
81935;DHT22;71405;47.674;-2.050;2023-08-12T00:32:30;22.60;73.90
81935;DHT22;71405;47.674;-2.050;2023-08-12T00:34:55;22.60;73.90
81935;DHT22;71405;47.674;-2.050;2023-08-12T00:37:22;22.60;73.90
81935;DHT22;71405;47.674;-2.050;2023-08-12T00:39:48;22.60;74.00
81935;DHT22;71405;47.674;-2.050;2023-08-12T00:42:13;22.60;74.00
81935;DHT22;71405;47.674;-2.050;2023-08-12T00:44:39;22.60;74.00
81935;DHT22;71405;47.674;-2.050;2023-08-12T00:47:05;22.60;74.00
81935;DHT22;71405;47.674;-2.050;2023-08-12T00:49:32;22.60;74.10
81935;DHT22;71405;47.674;-2.050;2023-08-12T00:51:58;22.60;74.00
81935;DHT22;71405;47.674;-2.050;2023-08-12T00:54:26;22.60;74.00
81935;DHT22;71405;47.674;-2.050;2023-08-12T00:56:53;22.60;74.00
81935;DHT22;71405;47.674;-2.050;2023-08-12T00:59:20;22.60;73.90
81935;DHT22;71405;47.674;-2.050;2023-08-12T01:01:47;22.60;73.90
81935;DHT22;71405;47.674;-2.050;2023-08-12T01:04:12;22.60;73.80
81935;DHT22;71405;47.674;-2.050;2023-08-12T01:06:38;22.60;73.70
81935;DHT22;71405;47.674;-2.050;2023-08-12T01:09:05;22.60;73.80
81935;DHT22;71405;47.674;-2.050;2023-08-12T01:17:00;22.60;73.50
81935;DHT22;71405;47.674;-2.050;2023-08-12T01:19:37;22.60;73.60
81935;DHT22;71405;47.674;-2.050;2023-08-12T01:22:11;22.60;73.50
81935;DHT22;71405;47.674;-2.050;2023-08-12T01:24:42;22.60;73.50
81935;DHT22;71405;47.674;-2.050;2023-08-12T01:27:09;22.60;73.50
81935;DHT22;71405;47.674;-2.050;2023-08-12T01:29:41;22.60;73.50
81935;DHT22;71405;47.674;-2.050;2023-08-12T01:37:29;22.60;73.30
81935;DHT22;71405;47.674;-2.050;2023-08-12T01:39:56;22.60;73.20
81935;DHT22;71405;47.674;-2.050;2023-08-12T01:42:24;22.60;73.30
81935;DHT22;71405;47.674;-2.050;2023-08-12T01:44:50;22.60;73.30
81935;DHT22;71405;47.674;-2.050;2023-08-12T01:47:16;22.60;73.40
81935;DHT22;71405;47.674;-2.050;2023-08-12T01:49:42;22.60;73.30
81935;DHT22;71405;47.674;-2.050;2023-08-12T01:52:07;22.60;73.50
81935;DHT22;71405;47.674;-2.050;2023-08-12T01:54:33;22.60;73.50
81935;DHT22;71405;47.674;-2.050;2023-08-12T01:57:04;22.60;73.30
81935;DHT22;71405;47.674;-2.050;2023-08-12T01:59:37;22.60;73.40
81935;DHT22;71405;47.674;-2.050;2023-08-12T02:02:03;22.60;73.20
81935;DHT22;71405;47.674;-2.050;2023-08-12T02:04:29;22.60;73.40
81935;DHT22;71405;47.674;-2.050;2023-08-12T02:06:55;22.60;73.30
81935;DHT22;71405;47.674;-2.050;2023-08-12T02:09:21;22.60;73.40
81935;DHT22;71405;47.674;-2.050;2023-08-12T02:11:48;22.60;73.30
81935;DHT22;71405;47.674;-2.050;2023-08-12T02:14:14;22.60;73.10
81935;DHT22;71405;47.674;-2.050;2023-08-12T02:16:40;22.50;73.20
81935;DHT22;71405;47.674;-2.050;2023-08-12T02:19:05;22.60;73.20
81935;DHT22;71405;47.674;-2.050;2023-08-12T02:21:31;22.60;73.20
81935;DHT22;71405;47.674;-2.050;2023-08-12T02:23:57;22.60;73.20
81935;DHT22;71405;47.674;-2.050;2023-08-12T02:26:23;22.50;73.10
81935;DHT22;71405;47.674;-2.050;2023-08-12T02:28:49;22.60;73.20
81935;DHT22;71405;47.674;-2.050;2023-08-12T02:31:15;22.60;73.20
81935;DHT22;71405;47.674;-2.050;2023-08-12T02:33:41;22.60;73.30
81935;DHT22;71405;47.674;-2.050;2023-08-12T02:36:07;22.50;73.30
81935;DHT22;71405;47.674;-2.050;2023-08-12T02:38:33;22.50;73.20
81935;DHT22;71405;47.674;-2.050;2023-08-12T02:40:58;22.50;73.00
81935;DHT22;71405;47.674;-2.050;2023-08-12T02:43:24;22.60;73.00
81935;DHT22;71405;47.674;-2.050;2023-08-12T02:45:50;22.50;73.20
81935;DHT22;71405;47.674;-2.050;2023-08-12T02:48:16;22.50;73.00
81935;DHT22;71405;47.674;-2.050;2023-08-12T02:50:41;22.50;73.10
81935;DHT22;71405;47.674;-2.050;2023-08-12T02:53:07;22.50;73.00
81935;DHT22;71405;47.674;-2.050;2023-08-12T02:55:33;22.50;73.00
81935;DHT22;71405;47.674;-2.050;2023-08-12T02:58:03;22.50;72.90
81935;DHT22;71405;47.674;-2.050;2023-08-12T03:00:28;22.50;73.10
81935;DHT22;71405;47.674;-2.050;2023-08-12T03:02:54;22.50;72.90
81935;DHT22;71405;47.674;-2.050;2023-08-12T03:05:20;22.50;72.80
81935;DHT22;71405;47.674;-2.050;2023-08-12T03:07:46;22.50;73.00
81935;DHT22;71405;47.674;-2.050;2023-08-12T03:10:12;22.50;72.80
81935;DHT22;71405;47.674;-2.050;2023-08-12T03:12:37;22.50;72.90
81935;DHT22;71405;47.674;-2.050;2023-08-12T03:15:04;22.50;73.00
81935;DHT22;71405;47.674;-2.050;2023-08-12T03:17:30;22.50;72.80
81935;DHT22;71405;47.674;-2.050;2023-08-12T03:19:57;22.50;72.90
81935;DHT22;71405;47.674;-2.050;2023-08-12T03:22:27;22.50;72.80
81935;DHT22;71405;47.674;-2.050;2023-08-12T03:24:53;22.50;72.90
81935;DHT22;71405;47.674;-2.050;2023-08-12T03:27:19;22.50;72.90
81935;DHT22;71405;47.674;-2.050;2023-08-12T03:29:45;22.50;72.90
81935;DHT22;71405;47.674;-2.050;2023-08-12T03:32:10;22.50;72.90
81935;DHT22;71405;47.674;-2.050;2023-08-12T03:34:36;22.50;72.90
81935;DHT22;71405;47.674;-2.050;2023-08-12T03:37:02;22.50;72.80
81935;DHT22;71405;47.674;-2.050;2023-08-12T03:39:27;22.50;72.70
81935;DHT22;71405;47.674;-2.050;2023-08-12T03:41:53;22.50;72.70
81935;DHT22;71405;47.674;-2.050;2023-08-12T03:44:19;22.50;72.50
81935;DHT22;71405;47.674;-2.050;2023-08-12T03:46:45;22.50;72.60
81935;DHT22;71405;47.674;-2.050;2023-08-12T03:49:10;22.50;72.80
81935;DHT22;71405;47.674;-2.050;2023-08-12T03:51:36;22.50;72.60
81935;DHT22;71405;47.674;-2.050;2023-08-12T03:54:02;22.50;72.50
81935;DHT22;71405;47.674;-2.050;2023-08-12T03:56:29;22.50;72.50
81935;DHT22;71405;47.674;-2.050;2023-08-12T03:58:54;22.50;72.60
81935;DHT22;71405;47.674;-2.050;2023-08-12T04:01:20;22.50;72.60
81935;DHT22;71405;47.674;-2.050;2023-08-12T04:03:47;22.50;72.60
81935;DHT22;71405;47.674;-2.050;2023-08-12T04:06:12;22.50;72.40
81935;DHT22;71405;47.674;-2.050;2023-08-12T04:08:38;22.50;72.20
81935;DHT22;71405;47.674;-2.050;2023-08-12T04:11:04;22.50;72.30
81935;DHT22;71405;47.674;-2.050;2023-08-12T04:13:30;22.50;72.20
81935;DHT22;71405;47.674;-2.050;2023-08-12T04:15:55;22.50;72.10
81935;DHT22;71405;47.674;-2.050;2023-08-12T04:18:22;22.50;72.10
81935;DHT22;71405;47.674;-2.050;2023-08-12T04:20:51;22.50;72.00
81935;DHT22;71405;47.674;-2.050;2023-08-12T04:23:18;22.50;72.10
81935;DHT22;71405;47.674;-2.050;2023-08-12T04:25:44;22.50;72.00
81935;DHT22;71405;47.674;-2.050;2023-08-12T04:28:11;22.50;72.00
81935;DHT22;71405;47.674;-2.050;2023-08-12T04:30:44;22.50;72.20
81935;DHT22;71405;47.674;-2.050;2023-08-12T04:33:11;22.50;72.10
81935;DHT22;71405;47.674;-2.050;2023-08-12T04:35:37;22.50;72.30
81935;DHT22;71405;47.674;-2.050;2023-08-12T04:38:03;22.40;72.30
81935;DHT22;71405;47.674;-2.050;2023-08-12T04:40:29;22.40;72.30
81935;DHT22;71405;47.674;-2.050;2023-08-12T04:42:55;22.40;72.30
81935;DHT22;71405;47.674;-2.050;2023-08-12T04:45:20;22.40;72.20
81935;DHT22;71405;47.674;-2.050;2023-08-12T04:47:46;22.40;72.20
81935;DHT22;71405;47.674;-2.050;2023-08-12T04:50:12;22.40;72.10
81935;DHT22;71405;47.674;-2.050;2023-08-12T04:52:37;22.40;72.10
81935;DHT22;71405;47.674;-2.050;2023-08-12T04:55:03;22.40;71.90
81935;DHT22;71405;47.674;-2.050;2023-08-12T04:57:30;22.30;71.30
81935;DHT22;71405;47.674;-2.050;2023-08-12T04:59:55;22.30;71.50
81935;DHT22;71405;47.674;-2.050;2023-08-12T05:02:21;22.30;71.40
81935;DHT22;71405;47.674;-2.050;2023-08-12T05:04:51;22.30;71.60
81935;DHT22;71405;47.674;-2.050;2023-08-12T05:07:17;22.30;71.60
81935;DHT22;71405;47.674;-2.050;2023-08-12T05:09:43;22.30;71.80
81935;DHT22;71405;47.674;-2.050;2023-08-12T05:12:10;22.30;71.70
81935;DHT22;71405;47.674;-2.050;2023-08-12T05:14:37;22.40;71.80
81935;DHT22;71405;47.674;-2.050;2023-08-12T05:17:02;22.40;71.80
81935;DHT22;71405;47.674;-2.050;2023-08-12T05:19:28;22.40;71.80
81935;DHT22;71405;47.674;-2.050;2023-08-12T05:21:54;22.40;71.80
81935;DHT22;71405;47.674;-2.050;2023-08-12T05:24:19;22.40;71.80
81935;DHT22;71405;47.674;-2.050;2023-08-12T05:26:45;22.40;71.60
81935;DHT22;71405;47.674;-2.050;2023-08-12T05:29:11;22.40;71.60
81935;DHT22;71405;47.674;-2.050;2023-08-12T05:31:36;22.40;71.80
81935;DHT22;71405;47.674;-2.050;2023-08-12T05:34:02;22.40;71.90
81935;DHT22;71405;47.674;-2.050;2023-08-12T05:36:28;22.40;72.00
81935;DHT22;71405;47.674;-2.050;2023-08-12T05:38:54;22.40;71.90
81935;DHT22;71405;47.674;-2.050;2023-08-12T05:41:20;22.40;71.80
81935;DHT22;71405;47.674;-2.050;2023-08-12T05:43:46;22.40;72.10
81935;DHT22;71405;47.674;-2.050;2023-08-12T05:46:12;22.40;71.90
81935;DHT22;71405;47.674;-2.050;2023-08-12T05:48:38;22.40;71.90
81935;DHT22;71405;47.674;-2.050;2023-08-12T05:51:03;22.40;71.80
81935;DHT22;71405;47.674;-2.050;2023-08-12T05:53:29;22.40;71.80
81935;DHT22;71405;47.674;-2.050;2023-08-12T05:55:56;22.40;71.80
81935;DHT22;71405;47.674;-2.050;2023-08-12T05:58:21;22.40;71.90
81935;DHT22;71405;47.674;-2.050;2023-08-12T06:00:47;22.40;71.80
81935;DHT22;71405;47.674;-2.050;2023-08-12T06:03:13;22.40;71.70
81935;DHT22;71405;47.674;-2.050;2023-08-12T06:05:40;22.40;71.80
81935;DHT22;71405;47.674;-2.050;2023-08-12T06:08:06;22.40;71.70
81935;DHT22;71405;47.674;-2.050;2023-08-12T06:10:33;22.40;71.70
81935;DHT22;71405;47.674;-2.050;2023-08-12T06:12:59;22.40;71.60
81935;DHT22;71405;47.674;-2.050;2023-08-12T06:15:24;22.30;71.10
81935;DHT22;71405;47.674;-2.050;2023-08-12T06:17:50;22.20;70.80
81935;DHT22;71405;47.674;-2.050;2023-08-12T06:20:16;22.20;71.10
81935;DHT22;71405;47.674;-2.050;2023-08-12T06:22:42;22.20;71.00
81935;DHT22;71405;47.674;-2.050;2023-08-12T06:25:08;22.30;71.20
81935;DHT22;71405;47.674;-2.050;2023-08-12T06:27:33;22.30;71.20
81935;DHT22;71405;47.674;-2.050;2023-08-12T06:29:59;22.30;71.20
81935;DHT22;71405;47.674;-2.050;2023-08-12T06:32:25;22.40;71.20
81935;DHT22;71405;47.674;-2.050;2023-08-12T06:34:51;22.30;71.20
81935;DHT22;71405;47.674;-2.050;2023-08-12T06:37:16;22.40;71.20
81935;DHT22;71405;47.674;-2.050;2023-08-12T06:39:42;22.40;71.20
81935;DHT22;71405;47.674;-2.050;2023-08-12T06:42:08;22.40;71.30
81935;DHT22;71405;47.674;-2.050;2023-08-12T06:44:33;22.40;71.30
81935;DHT22;71405;47.674;-2.050;2023-08-12T06:46:59;22.40;71.30
81935;DHT22;71405;47.674;-2.050;2023-08-12T06:49:24;22.40;71.30
81935;DHT22;71405;47.674;-2.050;2023-08-12T06:51:50;22.40;71.10
81935;DHT22;71405;47.674;-2.050;2023-08-12T06:54:16;22.40;71.20
81935;DHT22;71405;47.674;-2.050;2023-08-12T06:56:42;22.40;71.20
81935;DHT22;71405;47.674;-2.050;2023-08-12T06:59:07;22.40;71.20
81935;DHT22;71405;47.674;-2.050;2023-08-12T07:01:33;22.40;71.00
81935;DHT22;71405;47.674;-2.050;2023-08-12T07:03:59;22.40;70.80
81935;DHT22;71405;47.674;-2.050;2023-08-12T07:06:25;22.30;69.90
81935;DHT22;71405;47.674;-2.050;2023-08-12T07:08:50;22.30;70.20
81935;DHT22;71405;47.674;-2.050;2023-08-12T07:11:16;22.30;70.20
81935;DHT22;71405;47.674;-2.050;2023-08-12T07:13:41;22.30;70.40
81935;DHT22;71405;47.674;-2.050;2023-08-12T07:16:11;22.30;70.50
81935;DHT22;71405;47.674;-2.050;2023-08-12T07:18:37;22.40;70.50
81935;DHT22;71405;47.674;-2.050;2023-08-12T07:21:03;22.40;70.40
81935;DHT22;71405;47.674;-2.050;2023-08-12T07:23:29;22.40;70.40
81935;DHT22;71405;47.674;-2.050;2023-08-12T07:25:55;22.40;70.50
81935;DHT22;71405;47.674;-2.050;2023-08-12T07:28:21;22.40;70.60
81935;DHT22;71405;47.674;-2.050;2023-08-12T07:30:48;22.40;70.50
81935;DHT22;71405;47.674;-2.050;2023-08-12T07:33:14;22.40;70.50
81935;DHT22;71405;47.674;-2.050;2023-08-12T07:35:40;22.40;70.30
81935;DHT22;71405;47.674;-2.050;2023-08-12T07:38:06;22.30;70.40
81935;DHT22;71405;47.674;-2.050;2023-08-12T07:40:32;22.30;70.20
81935;DHT22;71405;47.674;-2.050;2023-08-12T07:42:58;22.20;70.20
81935;DHT22;71405;47.674;-2.050;2023-08-12T07:45:24;22.20;70.10
81935;DHT22;71405;47.674;-2.050;2023-08-12T07:47:50;22.20;70.30
81935;DHT22;71405;47.674;-2.050;2023-08-12T07:50:16;22.20;70.20
81935;DHT22;71405;47.674;-2.050;2023-08-12T07:52:41;22.10;70.10
81935;DHT22;71405;47.674;-2.050;2023-08-12T07:55:07;22.10;70.10
81935;DHT22;71405;47.674;-2.050;2023-08-12T07:57:33;22.10;70.10
81935;DHT22;71405;47.674;-2.050;2023-08-12T07:59:59;22.10;70.10
81935;DHT22;71405;47.674;-2.050;2023-08-12T08:02:24;22.10;70.00
81935;DHT22;71405;47.674;-2.050;2023-08-12T08:04:50;22.10;70.10
81935;DHT22;71405;47.674;-2.050;2023-08-12T08:07:17;22.10;70.00
81935;DHT22;71405;47.674;-2.050;2023-08-12T08:09:43;22.10;69.90
81935;DHT22;71405;47.674;-2.050;2023-08-12T08:12:10;22.10;70.00
81935;DHT22;71405;47.674;-2.050;2023-08-12T08:14:36;22.10;70.10
81935;DHT22;71405;47.674;-2.050;2023-08-12T08:17:02;22.10;70.00
81935;DHT22;71405;47.674;-2.050;2023-08-12T08:19:29;22.10;70.00
81935;DHT22;71405;47.674;-2.050;2023-08-12T08:21:54;22.10;70.10
81935;DHT22;71405;47.674;-2.050;2023-08-12T08:24:20;22.10;70.00
81935;DHT22;71405;47.674;-2.050;2023-08-12T08:26:46;22.10;70.00
81935;DHT22;71405;47.674;-2.050;2023-08-12T08:29:12;22.10;70.10
81935;DHT22;71405;47.674;-2.050;2023-08-12T08:31:38;22.10;70.00
81935;DHT22;71405;47.674;-2.050;2023-08-12T08:34:04;22.10;69.90
81935;DHT22;71405;47.674;-2.050;2023-08-12T08:36:30;22.10;69.90
81935;DHT22;71405;47.674;-2.050;2023-08-12T08:38:56;22.10;70.00
81935;DHT22;71405;47.674;-2.050;2023-08-12T08:41:21;22.10;69.90
81935;DHT22;71405;47.674;-2.050;2023-08-12T08:43:52;22.10;69.60
81935;DHT22;71405;47.674;-2.050;2023-08-12T08:46:21;22.00;69.30
81935;DHT22;71405;47.674;-2.050;2023-08-12T08:48:47;21.90;69.70
81935;DHT22;71405;47.674;-2.050;2023-08-12T08:51:14;21.80;69.80
81935;DHT22;71405;47.674;-2.050;2023-08-12T08:53:40;21.70;69.60
81935;DHT22;71405;47.674;-2.050;2023-08-12T08:56:07;21.70;69.40
81935;DHT22;71405;47.674;-2.050;2023-08-12T08:58:33;21.70;69.20
81935;DHT22;71405;47.674;-2.050;2023-08-12T09:01:00;21.70;69.60
81935;DHT22;71405;47.674;-2.050;2023-08-12T09:03:27;21.70;69.70
81935;DHT22;71405;47.674;-2.050;2023-08-12T09:05:55;21.70;69.40
81935;DHT22;71405;47.674;-2.050;2023-08-12T09:08:21;21.60;69.30
81935;DHT22;71405;47.674;-2.050;2023-08-12T09:10:48;21.60;69.80
81935;DHT22;71405;47.674;-2.050;2023-08-12T09:13:14;21.60;69.20
81935;DHT22;71405;47.674;-2.050;2023-08-12T09:15:41;21.60;69.70
81935;DHT22;71405;47.674;-2.050;2023-08-12T09:18:07;21.60;69.50
81935;DHT22;71405;47.674;-2.050;2023-08-12T09:20:34;21.60;69.60
81935;DHT22;71405;47.674;-2.050;2023-08-12T09:23:00;21.60;69.10
81935;DHT22;71405;47.674;-2.050;2023-08-12T09:25:29;21.60;68.70
81935;DHT22;71405;47.674;-2.050;2023-08-12T09:27:58;21.60;69.10
81935;DHT22;71405;47.674;-2.050;2023-08-12T09:30:24;21.70;68.90
81935;DHT22;71405;47.674;-2.050;2023-08-12T09:33:00;21.70;68.50
81935;DHT22;71405;47.674;-2.050;2023-08-12T09:35:36;21.70;69.00
81935;DHT22;71405;47.674;-2.050;2023-08-12T09:38:15;21.70;68.60
81935;DHT22;71405;47.674;-2.050;2023-08-12T09:40:41;21.80;68.50
81935;DHT22;71405;47.674;-2.050;2023-08-12T09:43:07;21.80;68.40
81935;DHT22;71405;47.674;-2.050;2023-08-12T09:45:34;21.80;68.40
81935;DHT22;71405;47.674;-2.050;2023-08-12T09:48:00;21.80;68.50
81935;DHT22;71405;47.674;-2.050;2023-08-12T09:50:27;21.80;69.30
81935;DHT22;71405;47.674;-2.050;2023-08-12T09:52:53;21.80;69.10
81935;DHT22;71405;47.674;-2.050;2023-08-12T09:55:22;21.90;68.70
81935;DHT22;71405;47.674;-2.050;2023-08-12T09:57:51;21.90;68.40
81935;DHT22;71405;47.674;-2.050;2023-08-12T10:00:18;21.90;67.90
81935;DHT22;71405;47.674;-2.050;2023-08-12T10:02:46;21.90;68.10
81935;DHT22;71405;47.674;-2.050;2023-08-12T10:05:16;21.80;68.60
81935;DHT22;71405;47.674;-2.050;2023-08-12T10:07:44;21.90;68.80
81935;DHT22;71405;47.674;-2.050;2023-08-12T10:10:11;21.90;68.70
81935;DHT22;71405;47.674;-2.050;2023-08-12T10:12:38;21.90;68.20
81935;DHT22;71405;47.674;-2.050;2023-08-12T10:15:05;21.90;67.80
81935;DHT22;71405;47.674;-2.050;2023-08-12T10:17:33;21.90;67.70
81935;DHT22;71405;47.674;-2.050;2023-08-12T10:20:01;21.90;67.60
81935;DHT22;71405;47.674;-2.050;2023-08-12T10:22:30;22.00;67.60
81935;DHT22;71405;47.674;-2.050;2023-08-12T10:25:02;22.00;68.10
81935;DHT22;71405;47.674;-2.050;2023-08-12T10:27:28;22.00;68.40
81935;DHT22;71405;47.674;-2.050;2023-08-12T10:29:56;22.00;68.00
81935;DHT22;71405;47.674;-2.050;2023-08-12T10:32:23;22.00;67.50
81935;DHT22;71405;47.674;-2.050;2023-08-12T10:34:56;22.00;67.70
81935;DHT22;71405;47.674;-2.050;2023-08-12T10:37:24;22.00;67.60
81935;DHT22;71405;47.674;-2.050;2023-08-12T10:39:51;21.90;67.50
81935;DHT22;71405;47.674;-2.050;2023-08-12T10:42:42;21.90;67.80
81935;DHT22;71405;47.674;-2.050;2023-08-12T10:45:12;21.90;67.90
81935;DHT22;71405;47.674;-2.050;2023-08-12T10:48:11;21.90;67.80
81935;DHT22;71405;47.674;-2.050;2023-08-12T10:50:44;21.90;67.30
81935;DHT22;71405;47.674;-2.050;2023-08-12T10:55:55;21.90;67.50
81935;DHT22;71405;47.674;-2.050;2023-08-12T10:58:27;22.00;67.50
81935;DHT22;71405;47.674;-2.050;2023-08-12T11:00:56;22.00;67.40
81935;DHT22;71405;47.674;-2.050;2023-08-12T11:03:23;22.00;67.10
81935;DHT22;71405;47.674;-2.050;2023-08-12T11:05:49;22.00;66.80
81935;DHT22;71405;47.674;-2.050;2023-08-12T11:08:16;22.00;67.10
81935;DHT22;71405;47.674;-2.050;2023-08-12T11:10:42;22.00;67.20
81935;DHT22;71405;47.674;-2.050;2023-08-12T11:13:09;22.00;67.10
81935;DHT22;71405;47.674;-2.050;2023-08-12T11:15:37;22.00;66.50
81935;DHT22;71405;47.674;-2.050;2023-08-12T11:20:32;22.00;66.90
81935;DHT22;71405;47.674;-2.050;2023-08-12T11:22:59;22.00;67.00
81935;DHT22;71405;47.674;-2.050;2023-08-12T11:25:27;22.00;67.10
81935;DHT22;71405;47.674;-2.050;2023-08-12T11:27:53;22.00;66.90
81935;DHT22;71405;47.674;-2.050;2023-08-12T11:30:20;22.10;67.00
81935;DHT22;71405;47.674;-2.050;2023-08-12T11:32:49;22.10;67.00
81935;DHT22;71405;47.674;-2.050;2023-08-12T11:35:16;22.10;66.90
81935;DHT22;71405;47.674;-2.050;2023-08-12T11:37:45;22.20;66.50
81935;DHT22;71405;47.674;-2.050;2023-08-12T11:40:12;22.10;66.30
81935;DHT22;71405;47.674;-2.050;2023-08-12T11:42:41;22.10;66.10
81935;DHT22;71405;47.674;-2.050;2023-08-12T11:45:07;22.10;66.40
81935;DHT22;71405;47.674;-2.050;2023-08-12T11:47:39;22.20;66.30
81935;DHT22;71405;47.674;-2.050;2023-08-12T11:50:07;22.10;66.00
81935;DHT22;71405;47.674;-2.050;2023-08-12T11:52:34;22.20;65.70
81935;DHT22;71405;47.674;-2.050;2023-08-12T11:55:00;22.20;65.70
81935;DHT22;71405;47.674;-2.050;2023-08-12T11:57:26;22.20;65.70
81935;DHT22;71405;47.674;-2.050;2023-08-12T12:00:00;22.30;65.60
81935;DHT22;71405;47.674;-2.050;2023-08-12T12:02:26;22.30;65.30
81935;DHT22;71405;47.674;-2.050;2023-08-12T12:04:52;22.30;64.80
81935;DHT22;71405;47.674;-2.050;2023-08-12T12:07:23;22.30;64.80
81935;DHT22;71405;47.674;-2.050;2023-08-12T12:09:52;22.30;64.80
81935;DHT22;71405;47.674;-2.050;2023-08-12T12:12:22;22.30;64.80
81935;DHT22;71405;47.674;-2.050;2023-08-12T12:14:53;22.30;64.70
81935;DHT22;71405;47.674;-2.050;2023-08-12T12:17:23;22.30;64.40
81935;DHT22;71405;47.674;-2.050;2023-08-12T12:19:56;22.40;64.30
81935;DHT22;71405;47.674;-2.050;2023-08-12T12:22:30;22.40;64.50
81935;DHT22;71405;47.674;-2.050;2023-08-12T12:24:59;22.30;64.10
81935;DHT22;71405;47.674;-2.050;2023-08-12T12:27:26;22.30;63.90
81935;DHT22;71405;47.674;-2.050;2023-08-12T12:29:53;22.40;64.30
81935;DHT22;71405;47.674;-2.050;2023-08-12T12:32:19;22.40;63.70
81935;DHT22;71405;47.674;-2.050;2023-08-12T12:34:46;22.40;63.70
81935;DHT22;71405;47.674;-2.050;2023-08-12T12:37:12;22.40;63.80
81935;DHT22;71405;47.674;-2.050;2023-08-12T12:39:39;22.40;64.10
81935;DHT22;71405;47.674;-2.050;2023-08-12T12:42:05;22.50;64.20
81935;DHT22;71405;47.674;-2.050;2023-08-12T12:44:30;22.50;64.10
81935;DHT22;71405;47.674;-2.050;2023-08-12T12:46:56;22.40;63.10
81935;DHT22;71405;47.674;-2.050;2023-08-12T12:49:22;22.40;63.90
81935;DHT22;71405;47.674;-2.050;2023-08-12T12:51:48;22.50;64.00
81935;DHT22;71405;47.674;-2.050;2023-08-12T12:54:13;22.50;63.40
81935;DHT22;71405;47.674;-2.050;2023-08-12T12:56:39;22.60;63.60
81935;DHT22;71405;47.674;-2.050;2023-08-12T12:59:05;22.60;63.40
81935;DHT22;71405;47.674;-2.050;2023-08-12T13:01:31;22.60;63.80
81935;DHT22;71405;47.674;-2.050;2023-08-12T13:03:57;22.50;63.90
81935;DHT22;71405;47.674;-2.050;2023-08-12T13:06:22;22.60;63.70
81935;DHT22;71405;47.674;-2.050;2023-08-12T13:08:48;22.60;63.50
81935;DHT22;71405;47.674;-2.050;2023-08-12T13:11:15;22.60;63.00
81935;DHT22;71405;47.674;-2.050;2023-08-12T13:13:41;22.60;62.40
81935;DHT22;71405;47.674;-2.050;2023-08-12T13:16:06;22.50;62.30
81935;DHT22;71405;47.674;-2.050;2023-08-12T13:18:34;22.60;62.40
81935;DHT22;71405;47.674;-2.050;2023-08-12T13:20:59;22.70;62.70
81935;DHT22;71405;47.674;-2.050;2023-08-12T13:23:26;22.70;62.40
81935;DHT22;71405;47.674;-2.050;2023-08-12T13:25:52;22.70;62.40
81935;DHT22;71405;47.674;-2.050;2023-08-12T13:28:18;22.70;62.30
81935;DHT22;71405;47.674;-2.050;2023-08-12T13:30:44;22.70;62.40
81935;DHT22;71405;47.674;-2.050;2023-08-12T13:33:10;22.70;62.00
81935;DHT22;71405;47.674;-2.050;2023-08-12T13:35:36;22.70;62.10
81935;DHT22;71405;47.674;-2.050;2023-08-12T13:38:02;22.70;61.80
81935;DHT22;71405;47.674;-2.050;2023-08-12T13:40:28;22.80;61.80
81935;DHT22;71405;47.674;-2.050;2023-08-12T13:42:53;22.80;61.60
81935;DHT22;71405;47.674;-2.050;2023-08-12T13:45:19;22.80;61.90
81935;DHT22;71405;47.674;-2.050;2023-08-12T13:47:45;22.80;61.90
81935;DHT22;71405;47.674;-2.050;2023-08-12T13:50:11;22.80;61.90
81935;DHT22;71405;47.674;-2.050;2023-08-12T13:52:37;22.80;62.30
81935;DHT22;71405;47.674;-2.050;2023-08-12T13:55:03;22.80;62.20
81935;DHT22;71405;47.674;-2.050;2023-08-12T13:57:29;22.80;61.80
81935;DHT22;71405;47.674;-2.050;2023-08-12T13:59:55;22.90;61.80
81935;DHT22;71405;47.674;-2.050;2023-08-12T14:02:21;22.90;62.10
81935;DHT22;71405;47.674;-2.050;2023-08-12T14:04:47;23.10;62.10
81935;DHT22;71405;47.674;-2.050;2023-08-12T14:07:12;23.20;62.30
81935;DHT22;71405;47.674;-2.050;2023-08-12T14:09:38;23.20;62.60
81935;DHT22;71405;47.674;-2.050;2023-08-12T14:12:04;23.30;62.20
81935;DHT22;71405;47.674;-2.050;2023-08-12T14:14:30;23.30;62.50
81935;DHT22;71405;47.674;-2.050;2023-08-12T14:16:56;23.30;62.50
81935;DHT22;71405;47.674;-2.050;2023-08-12T14:19:22;23.40;62.60
81935;DHT22;71405;47.674;-2.050;2023-08-12T14:21:47;23.40;62.40
81935;DHT22;71405;47.674;-2.050;2023-08-12T14:24:13;23.50;62.00
81935;DHT22;71405;47.674;-2.050;2023-08-12T14:26:40;23.60;61.80
81935;DHT22;71405;47.674;-2.050;2023-08-12T14:29:06;23.60;62.10
81935;DHT22;71405;47.674;-2.050;2023-08-12T14:31:32;23.60;62.00
81935;DHT22;71405;47.674;-2.050;2023-08-12T14:33:58;23.60;61.80
81935;DHT22;71405;47.674;-2.050;2023-08-12T14:36:24;23.60;62.10
81935;DHT22;71405;47.674;-2.050;2023-08-12T14:38:52;23.60;62.30
81935;DHT22;71405;47.674;-2.050;2023-08-12T14:41:18;23.50;62.60
81935;DHT22;71405;47.674;-2.050;2023-08-12T14:43:43;23.50;62.80
81935;DHT22;71405;47.674;-2.050;2023-08-12T14:46:09;23.40;63.00
81935;DHT22;71405;47.674;-2.050;2023-08-12T14:48:35;23.40;63.10
81935;DHT22;71405;47.674;-2.050;2023-08-12T14:51:00;23.40;63.10
81935;DHT22;71405;47.674;-2.050;2023-08-12T14:53:27;23.30;63.10
81935;DHT22;71405;47.674;-2.050;2023-08-12T14:55:53;23.30;63.30
81935;DHT22;71405;47.674;-2.050;2023-08-12T14:58:18;23.20;63.30
81935;DHT22;71405;47.674;-2.050;2023-08-12T15:00:46;23.20;63.40
81935;DHT22;71405;47.674;-2.050;2023-08-12T15:03:11;23.20;63.40
81935;DHT22;71405;47.674;-2.050;2023-08-12T15:05:40;23.20;63.40
81935;DHT22;71405;47.674;-2.050;2023-08-12T15:08:06;23.20;63.40
81935;DHT22;71405;47.674;-2.050;2023-08-12T15:10:32;23.20;63.30
81935;DHT22;71405;47.674;-2.050;2023-08-12T15:12:58;23.20;63.30
81935;DHT22;71405;47.674;-2.050;2023-08-12T15:15:23;23.20;63.40
81935;DHT22;71405;47.674;-2.050;2023-08-12T15:17:49;23.20;63.40
81935;DHT22;71405;47.674;-2.050;2023-08-12T15:20:15;23.30;63.40
81935;DHT22;71405;47.674;-2.050;2023-08-12T15:22:40;23.30;63.30
81935;DHT22;71405;47.674;-2.050;2023-08-12T15:25:06;23.30;63.40
81935;DHT22;71405;47.674;-2.050;2023-08-12T15:27:34;23.20;63.50